Disclaimer

Please do not use the information listed here in-flight or in-navigation, as they are not provided to us by the airports but are provided by volunteers, so they might be outdated.

Search


Regions


Airport information page

Radio informations:
Tower (TWR) - 118.9 MHz
Ground (GND) - 121.9 MHz
MEDELLIN APP - 121.1 MHz

Airport informations:
Latitude: 06° 13' 11.85" N
Longitude: 075° 35' 25.87" W
Elevation: 4940 feet - 1506 meters
Operating hours: Remarks
Operating agency: Civil government, landing fees and diplomatic clearance may be required
Timezone: UTC-5
Fuel: N/A

Runway information:
02/20 - 8234 x 148 feet< - >2510 x 45 meters

Recent METARs:
SKMD 202000Z 27014KT 9999 5000S TS SCT035CB SCT100 27/15 A3000 RMK CB VCSH S/SW
SKMD 202000Z 27014KT 9999 5000S TS SCT035CB SCT100 27/15 A3000 RMK CB VCSH S/SW
SKMD 202100Z 18012KT 9999 FEW035CB SCT200 22/16 A3003 RMK CB S/W

Airport on the map: